sensor_id;sensor_type;location;lat;lon;timestamp;P1;durP1;ratioP1;P2;durP2;ratioP2
80936;SDS011;70395;51.382;7.074;2024-02-04T00:00:06;8.40;;;7.10;;
80936;SDS011;70395;51.382;7.074;2024-02-04T00:02:32;8.20;;;7.40;;
80936;SDS011;70395;51.382;7.074;2024-02-04T00:04:58;8.47;;;7.40;;
80936;SDS011;70395;51.382;7.074;2024-02-04T00:07:24;8.80;;;7.90;;
80936;SDS011;70395;51.382;7.074;2024-02-04T00:09:50;8.00;;;6.57;;
80936;SDS011;70395;51.382;7.074;2024-02-04T00:12:15;8.67;;;7.80;;
80936;SDS011;70395;51.382;7.074;2024-02-04T00:14:41;6.97;;;6.27;;
80936;SDS011;70395;51.382;7.074;2024-02-04T00:17:07;10.70;;;7.70;;
80936;SDS011;70395;51.382;7.074;2024-02-04T00:19:33;7.70;;;6.83;;
80936;SDS011;70395;51.382;7.074;2024-02-04T00:21:59;7.37;;;6.60;;
80936;SDS011;70395;51.382;7.074;2024-02-04T00:24:24;6.83;;;6.23;;
80936;SDS011;70395;51.382;7.074;2024-02-04T00:26:50;6.17;;;5.30;;
80936;SDS011;70395;51.382;7.074;2024-02-04T00:29:16;6.60;;;6.00;;
80936;SDS011;70395;51.382;7.074;2024-02-04T00:31:42;6.03;;;5.30;;
80936;SDS011;70395;51.382;7.074;2024-02-04T00:34:08;5.80;;;5.20;;
80936;SDS011;70395;51.382;7.074;2024-02-04T00:36:33;5.17;;;4.67;;
80936;SDS011;70395;51.382;7.074;2024-02-04T00:38:59;5.23;;;4.73;;
80936;SDS011;70395;51.382;7.074;2024-02-04T00:41:25;5.60;;;4.77;;
80936;SDS011;70395;51.382;7.074;2024-02-04T00:43:51;4.33;;;3.97;;
80936;SDS011;70395;51.382;7.074;2024-02-04T00:46:17;4.00;;;3.70;;
80936;SDS011;70395;51.382;7.074;2024-02-04T00:48:44;3.70;;;3.03;;
80936;SDS011;70395;51.382;7.074;2024-02-04T00:51:10;3.20;;;2.90;;
80936;SDS011;70395;51.382;7.074;2024-02-04T00:53:38;5.50;;;2.90;;
80936;SDS011;70395;51.382;7.074;2024-02-04T00:56:04;2.70;;;2.50;;
80936;SDS011;70395;51.382;7.074;2024-02-04T00:58:30;5.33;;;2.83;;
80936;SDS011;70395;51.382;7.074;2024-02-04T01:00:56;2.73;;;2.27;;
80936;SDS011;70395;51.382;7.074;2024-02-04T01:03:22;2.40;;;2.20;;
80936;SDS011;70395;51.382;7.074;2024-02-04T01:05:48;2.27;;;2.07;;
80936;SDS011;70395;51.382;7.074;2024-02-04T01:08:15;2.80;;;2.40;;
80936;SDS011;70395;51.382;7.074;2024-02-04T01:10:41;2.50;;;2.30;;
80936;SDS011;70395;51.382;7.074;2024-02-04T01:13:07;2.73;;;2.53;;
80936;SDS011;70395;51.382;7.074;2024-02-04T01:15:32;2.80;;;2.53;;
80936;SDS011;70395;51.382;7.074;2024-02-04T01:17:58;4.43;;;3.10;;
80936;SDS011;70395;51.382;7.074;2024-02-04T01:20:24;4.43;;;2.93;;
80936;SDS011;70395;51.382;7.074;2024-02-04T01:22:50;2.43;;;2.20;;
80936;SDS011;70395;51.382;7.074;2024-02-04T01:25:16;2.50;;;2.10;;
80936;SDS011;70395;51.382;7.074;2024-02-04T01:27:42;3.40;;;2.63;;
80936;SDS011;70395;51.382;7.074;2024-02-04T01:30:08;3.13;;;2.83;;
80936;SDS011;70395;51.382;7.074;2024-02-04T01:32:34;2.80;;;2.50;;
80936;SDS011;70395;51.382;7.074;2024-02-04T01:35:00;3.80;;;3.07;;
80936;SDS011;70395;51.382;7.074;2024-02-04T01:37:26;3.00;;;2.70;;
80936;SDS011;70395;51.382;7.074;2024-02-04T01:39:51;3.63;;;3.27;;
80936;SDS011;70395;51.382;7.074;2024-02-04T01:42:17;3.00;;;2.70;;
80936;SDS011;70395;51.382;7.074;2024-02-04T01:44:43;3.13;;;2.83;;
80936;SDS011;70395;51.382;7.074;2024-02-04T01:47:09;3.87;;;2.50;;
80936;SDS011;70395;51.382;7.074;2024-02-04T01:49:35;2.87;;;2.63;;
80936;SDS011;70395;51.382;7.074;2024-02-04T01:52:02;3.90;;;3.60;;
80936;SDS011;70395;51.382;7.074;2024-02-04T01:54:30;3.63;;;3.20;;
80936;SDS011;70395;51.382;7.074;2024-02-04T01:56:58;3.93;;;3.30;;
80936;SDS011;70395;51.382;7.074;2024-02-04T01:59:28;3.40;;;3.10;;
80936;SDS011;70395;51.382;7.074;2024-02-04T02:02:04;5.47;;;3.50;;
80936;SDS011;70395;51.382;7.074;2024-02-04T02:04:31;4.27;;;3.87;;
80936;SDS011;70395;51.382;7.074;2024-02-04T02:06:57;4.00;;;3.60;;
80936;SDS011;70395;51.382;7.074;2024-02-04T02:09:27;4.50;;;4.10;;
80936;SDS011;70395;51.382;7.074;2024-02-04T02:12:05;4.50;;;4.10;;
80936;SDS011;70395;51.382;7.074;2024-02-04T02:14:41;6.23;;;4.73;;
80936;SDS011;70395;51.382;7.074;2024-02-04T02:17:12;5.00;;;4.50;;
80936;SDS011;70395;51.382;7.074;2024-02-04T02:19:52;4.43;;;4.03;;
80936;SDS011;70395;51.382;7.074;2024-02-04T02:23:07;6.17;;;4.93;;
80936;SDS011;70395;51.382;7.074;2024-02-04T02:25:16;4.70;;;4.30;;
80936;SDS011;70395;51.382;7.074;2024-02-04T02:27:48;5.17;;;4.67;;
80936;SDS011;70395;51.382;7.074;2024-02-04T02:30:16;4.80;;;4.40;;
80936;SDS011;70395;51.382;7.074;2024-02-04T02:32:45;4.50;;;4.10;;
80936;SDS011;70395;51.382;7.074;2024-02-04T02:35:16;4.40;;;4.00;;
80936;SDS011;70395;51.382;7.074;2024-02-04T02:37:43;5.77;;;4.60;;
80936;SDS011;70395;51.382;7.074;2024-02-04T02:43:24;5.27;;;4.77;;
80936;SDS011;70395;51.382;7.074;2024-02-04T02:45:53;4.90;;;4.40;;
80936;SDS011;70395;51.382;7.074;2024-02-04T02:48:19;5.90;;;5.33;;
80936;SDS011;70395;51.382;7.074;2024-02-04T02:50:47;8.80;;;8.00;;
80936;SDS011;70395;51.382;7.074;2024-02-04T02:53:13;9.00;;;7.93;;
80936;SDS011;70395;51.382;7.074;2024-02-04T02:55:39;11.70;;;10.17;;
80936;SDS011;70395;51.382;7.074;2024-02-04T02:58:05;12.23;;;11.00;;
80936;SDS011;70395;51.382;7.074;2024-02-04T03:00:32;14.90;;;13.40;;
80936;SDS011;70395;51.382;7.074;2024-02-04T03:02:58;14.70;;;13.20;;
80936;SDS011;70395;51.382;7.074;2024-02-04T03:05:24;15.63;;;14.10;;
80936;SDS011;70395;51.382;7.074;2024-02-04T03:07:50;17.00;;;15.20;;
80936;SDS011;70395;51.382;7.074;2024-02-04T03:10:16;16.93;;;15.23;;
80936;SDS011;70395;51.382;7.074;2024-02-04T03:12:42;16.30;;;14.70;;
80936;SDS011;70395;51.382;7.074;2024-02-04T03:15:07;16.33;;;14.50;;
80936;SDS011;70395;51.382;7.074;2024-02-04T03:17:33;16.87;;;14.53;;
80936;SDS011;70395;51.382;7.074;2024-02-04T03:19:59;16.37;;;14.73;;
80936;SDS011;70395;51.382;7.074;2024-02-04T03:22:25;16.43;;;14.50;;
80936;SDS011;70395;51.382;7.074;2024-02-04T03:24:51;15.90;;;14.30;;
80936;SDS011;70395;51.382;7.074;2024-02-04T03:27:17;17.27;;;15.47;;
80936;SDS011;70395;51.382;7.074;2024-02-04T03:29:44;16.80;;;15.10;;
80936;SDS011;70395;51.382;7.074;2024-02-04T03:32:13;16.93;;;15.13;;
80936;SDS011;70395;51.382;7.074;2024-02-04T03:34:41;17.20;;;15.40;;
80936;SDS011;70395;51.382;7.074;2024-02-04T03:37:07;18.33;;;16.43;;
80936;SDS011;70395;51.382;7.074;2024-02-04T03:39:33;18.00;;;16.20;;
80936;SDS011;70395;51.382;7.074;2024-02-04T03:41:59;18.87;;;16.87;;
80936;SDS011;70395;51.382;7.074;2024-02-04T03:44:24;18.83;;;16.93;;
80936;SDS011;70395;51.382;7.074;2024-02-04T03:46:50;18.60;;;16.47;;
80936;SDS011;70395;51.382;7.074;2024-02-04T03:49:17;16.50;;;14.80;;
80936;SDS011;70395;51.382;7.074;2024-02-04T03:51:44;15.27;;;13.67;;
80936;SDS011;70395;51.382;7.074;2024-02-04T03:54:09;13.37;;;12.00;;
80936;SDS011;70395;51.382;7.074;2024-02-04T03:56:35;12.33;;;10.37;;
80936;SDS011;70395;51.382;7.074;2024-02-04T03:59:01;12.07;;;10.53;;
80936;SDS011;70395;51.382;7.074;2024-02-04T04:01:27;9.97;;;9.07;;
80936;SDS011;70395;51.382;7.074;2024-02-04T04:03:53;8.93;;;8.07;;
80936;SDS011;70395;51.382;7.074;2024-02-04T04:06:19;9.57;;;7.83;;
80936;SDS011;70395;51.382;7.074;2024-02-04T04:08:44;8.30;;;7.37;;
80936;SDS011;70395;51.382;7.074;2024-02-04T04:11:10;8.80;;;7.90;;
80936;SDS011;70395;51.382;7.074;2024-02-04T04:13:37;8.07;;;7.27;;
80936;SDS011;70395;51.382;7.074;2024-02-04T04:16:03;6.93;;;6.10;;
80936;SDS011;70395;51.382;7.074;2024-02-04T04:18:31;7.40;;;6.70;;
80936;SDS011;70395;51.382;7.074;2024-02-04T04:20:57;6.73;;;6.13;;
80936;SDS011;70395;51.382;7.074;2024-02-04T04:23:23;6.83;;;6.20;;
80936;SDS011;70395;51.382;7.074;2024-02-04T04:25:48;6.50;;;5.90;;
80936;SDS011;70395;51.382;7.074;2024-02-04T04:28:14;8.27;;;6.97;;
80936;SDS011;70395;51.382;7.074;2024-02-04T04:30:40;9.53;;;8.13;;
80936;SDS011;70395;51.382;7.074;2024-02-04T04:33:06;9.80;;;8.90;;
80936;SDS011;70395;51.382;7.074;2024-02-04T04:35:33;10.40;;;8.53;;
80936;SDS011;70395;51.382;7.074;2024-02-04T04:37:59;11.20;;;10.10;;
80936;SDS011;70395;51.382;7.074;2024-02-04T04:40:25;12.63;;;11.30;;
80936;SDS011;70395;51.382;7.074;2024-02-04T04:42:51;14.70;;;12.90;;
80936;SDS011;70395;51.382;7.074;2024-02-04T04:45:16;15.97;;;13.33;;
80936;SDS011;70395;51.382;7.074;2024-02-04T04:47:42;15.03;;;13.53;;
80936;SDS011;70395;51.382;7.074;2024-02-04T04:50:08;16.60;;;13.53;;
80936;SDS011;70395;51.382;7.074;2024-02-04T04:52:34;13.90;;;12.60;;
80936;SDS011;70395;51.382;7.074;2024-02-04T04:55:00;16.40;;;14.20;;
80936;SDS011;70395;51.382;7.074;2024-02-04T04:57:27;16.93;;;13.93;;
80936;SDS011;70395;51.382;7.074;2024-02-04T04:59:53;16.30;;;13.57;;
80936;SDS011;70395;51.382;7.074;2024-02-04T05:02:19;14.00;;;12.50;;
80936;SDS011;70395;51.382;7.074;2024-02-04T05:04:45;14.53;;;13.03;;
80936;SDS011;70395;51.382;7.074;2024-02-04T05:07:12;16.90;;;15.10;;
80936;SDS011;70395;51.382;7.074;2024-02-04T05:09:38;16.07;;;14.30;;
80936;SDS011;70395;51.382;7.074;2024-02-04T05:12:04;18.97;;;14.60;;
80936;SDS011;70395;51.382;7.074;2024-02-04T05:14:33;15.63;;;14.03;;
80936;SDS011;70395;51.382;7.074;2024-02-04T05:16:59;16.83;;;14.90;;
80936;SDS011;70395;51.382;7.074;2024-02-04T05:19:25;16.30;;;14.40;;
80936;SDS011;70395;51.382;7.074;2024-02-04T05:21:51;17.97;;;15.57;;
80936;SDS011;70395;51.382;7.074;2024-02-04T05:24:17;16.97;;;13.80;;
80936;SDS011;70395;51.382;7.074;2024-02-04T05:26:42;15.80;;;14.20;;
80936;SDS011;70395;51.382;7.074;2024-02-04T05:29:08;16.63;;;14.80;;
80936;SDS011;70395;51.382;7.074;2024-02-04T05:31:39;18.83;;;16.87;;
80936;SDS011;70395;51.382;7.074;2024-02-04T05:34:09;18.30;;;15.83;;
80936;SDS011;70395;51.382;7.074;2024-02-04T05:36:35;19.10;;;17.07;;
80936;SDS011;70395;51.382;7.074;2024-02-04T05:39:14;17.87;;;15.53;;
80936;SDS011;70395;51.382;7.074;2024-02-04T05:41:41;19.23;;;15.77;;
80936;SDS011;70395;51.382;7.074;2024-02-04T05:44:08;17.70;;;15.80;;
80936;SDS011;70395;51.382;7.074;2024-02-04T05:46:34;19.60;;;16.17;;
80936;SDS011;70395;51.382;7.074;2024-02-04T05:49:01;24.50;;;18.63;;
80936;SDS011;70395;51.382;7.074;2024-02-04T05:51:27;19.90;;;16.70;;
80936;SDS011;70395;51.382;7.074;2024-02-04T05:53:53;21.47;;;16.40;;
80936;SDS011;70395;51.382;7.074;2024-02-04T05:56:20;18.10;;;16.17;;
80936;SDS011;70395;51.382;7.074;2024-02-04T05:58:46;18.13;;;16.07;;
80936;SDS011;70395;51.382;7.074;2024-02-04T06:01:12;16.87;;;15.10;;
80936;SDS011;70395;51.382;7.074;2024-02-04T06:03:41;18.43;;;16.53;;
80936;SDS011;70395;51.382;7.074;2024-02-04T06:06:09;18.97;;;16.97;;
80936;SDS011;70395;51.382;7.074;2024-02-04T06:08:44;17.93;;;15.53;;
80936;SDS011;70395;51.382;7.074;2024-02-04T06:11:14;19.10;;;17.10;;
80936;SDS011;70395;51.382;7.074;2024-02-04T06:13:40;24.07;;;17.63;;
80936;SDS011;70395;51.382;7.074;2024-02-04T06:16:08;19.97;;;17.83;;
80936;SDS011;70395;51.382;7.074;2024-02-04T06:18:36;22.40;;;18.57;;
80936;SDS011;70395;51.382;7.074;2024-02-04T06:21:04;22.23;;;18.37;;
80936;SDS011;70395;51.382;7.074;2024-02-04T06:23:31;22.60;;;19.50;;
80936;SDS011;70395;51.382;7.074;2024-02-04T06:25:57;24.00;;;18.60;;
80936;SDS011;70395;51.382;7.074;2024-02-04T06:28:23;21.93;;;18.20;;
80936;SDS011;70395;51.382;7.074;2024-02-04T06:30:49;23.40;;;18.20;;
80936;SDS011;70395;51.382;7.074;2024-02-04T06:33:15;21.90;;;18.57;;
80936;SDS011;70395;51.382;7.074;2024-02-04T06:35:41;25.10;;;19.27;;
80936;SDS011;70395;51.382;7.074;2024-02-04T06:38:07;23.13;;;18.13;;
80936;SDS011;70395;51.382;7.074;2024-02-04T06:40:33;22.33;;;18.23;;
80936;SDS011;70395;51.382;7.074;2024-02-04T06:42:59;21.20;;;17.07;;
80936;SDS011;70395;51.382;7.074;2024-02-04T06:45:25;17.37;;;15.43;;
80936;SDS011;70395;51.382;7.074;2024-02-04T06:47:51;17.80;;;15.37;;
80936;SDS011;70395;51.382;7.074;2024-02-04T06:50:17;18.47;;;15.13;;
80936;SDS011;70395;51.382;7.074;2024-02-04T06:52:43;18.10;;;13.53;;
80936;SDS011;70395;51.382;7.074;2024-02-04T06:55:09;14.20;;;11.17;;
80936;SDS011;70395;51.382;7.074;2024-02-04T06:57:35;13.80;;;11.80;;
80936;SDS011;70395;51.382;7.074;2024-02-04T07:00:01;15.33;;;13.17;;
80936;SDS011;70395;51.382;7.074;2024-02-04T07:02:30;13.57;;;12.17;;
80936;SDS011;70395;51.382;7.074;2024-02-04T07:04:57;19.90;;;13.57;;
80936;SDS011;70395;51.382;7.074;2024-02-04T07:07:22;15.27;;;12.60;;
80936;SDS011;70395;51.382;7.074;2024-02-04T07:09:48;16.60;;;12.53;;
80936;SDS011;70395;51.382;7.074;2024-02-04T07:12:14;16.13;;;12.03;;
80936;SDS011;70395;51.382;7.074;2024-02-04T07:14:40;12.50;;;10.70;;
80936;SDS011;70395;51.382;7.074;2024-02-04T07:17:06;15.03;;;10.67;;
80936;SDS011;70395;51.382;7.074;2024-02-04T07:19:31;10.77;;;9.53;;
80936;SDS011;70395;51.382;7.074;2024-02-04T07:21:57;12.90;;;9.40;;
80936;SDS011;70395;51.382;7.074;2024-02-04T07:24:23;10.27;;;8.47;;
80936;SDS011;70395;51.382;7.074;2024-02-04T07:26:49;11.00;;;8.70;;
80936;SDS011;70395;51.382;7.074;2024-02-04T07:29:15;13.07;;;9.73;;
80936;SDS011;70395;51.382;7.074;2024-02-04T07:31:41;10.60;;;9.30;;
80936;SDS011;70395;51.382;7.074;2024-02-04T07:34:07;10.40;;;7.90;;
80936;SDS011;70395;51.382;7.074;2024-02-04T07:36:33;10.53;;;8.67;;
80936;SDS011;70395;51.382;7.074;2024-02-04T07:38:59;9.60;;;8.37;;
80936;SDS011;70395;51.382;7.074;2024-02-04T07:41:27;9.27;;;8.27;;
80936;SDS011;70395;51.382;7.074;2024-02-04T07:43:53;10.37;;;9.27;;
80936;SDS011;70395;51.382;7.074;2024-02-04T07:46:19;9.70;;;8.53;;
80936;SDS011;70395;51.382;7.074;2024-02-04T07:48:44;10.70;;;7.13;;
80936;SDS011;70395;51.382;7.074;2024-02-04T07:51:10;8.20;;;6.90;;
80936;SDS011;70395;51.382;7.074;2024-02-04T07:53:36;10.37;;;7.70;;
80936;SDS011;70395;51.382;7.074;2024-02-04T07:56:02;10.30;;;8.20;;
80936;SDS011;70395;51.382;7.074;2024-02-04T07:58:28;9.47;;;7.77;;
80936;SDS011;70395;51.382;7.074;2024-02-04T08:00:54;8.50;;;7.40;;
80936;SDS011;70395;51.382;7.074;2024-02-04T08:03:20;10.10;;;7.70;;
80936;SDS011;70395;51.382;7.074;2024-02-04T08:05:46;10.53;;;9.00;;
80936;SDS011;70395;51.382;7.074;2024-02-04T08:08:12;9.10;;;7.90;;
80936;SDS011;70395;51.382;7.074;2024-02-04T08:10:38;8.13;;;7.20;;
80936;SDS011;70395;51.382;7.074;2024-02-04T08:13:03;8.40;;;7.60;;
80936;SDS011;70395;51.382;7.074;2024-02-04T08:15:29;8.63;;;6.90;;
80936;SDS011;70395;51.382;7.074;2024-02-04T08:17:55;8.90;;;7.80;;
80936;SDS011;70395;51.382;7.074;2024-02-04T08:20:21;7.97;;;6.07;;
80936;SDS011;70395;51.382;7.074;2024-02-04T08:22:47;7.60;;;6.80;;
80936;SDS011;70395;51.382;7.074;2024-02-04T08:25:13;8.80;;;7.50;;
80936;SDS011;70395;51.382;7.074;2024-02-04T08:27:40;8.10;;;7.30;;
80936;SDS011;70395;51.382;7.074;2024-02-04T08:30:06;6.43;;;5.33;;
80936;SDS011;70395;51.382;7.074;2024-02-04T08:32:32;5.33;;;4.43;;
80936;SDS011;70395;51.382;7.074;2024-02-04T08:34:58;6.30;;;4.70;;
80936;SDS011;70395;51.382;7.074;2024-02-04T08:37:24;4.03;;;3.60;;
80936;SDS011;70395;51.382;7.074;2024-02-04T08:39:49;5.77;;;5.03;;
80936;SDS011;70395;51.382;7.074;2024-02-04T08:42:15;7.70;;;5.50;;
80936;SDS011;70395;51.382;7.074;2024-02-04T08:44:41;7.43;;;5.80;;
80936;SDS011;70395;51.382;7.074;2024-02-04T08:47:07;6.37;;;5.77;;
80936;SDS011;70395;51.382;7.074;2024-02-04T08:49:37;6.50;;;5.87;;
80936;SDS011;70395;51.382;7.074;2024-02-04T08:52:03;6.37;;;5.70;;
80936;SDS011;70395;51.382;7.074;2024-02-04T08:54:29;7.80;;;7.00;;
80936;SDS011;70395;51.382;7.074;2024-02-04T08:56:55;8.40;;;6.60;;
80936;SDS011;70395;51.382;7.074;2024-02-04T08:59:21;8.13;;;7.33;;
80936;SDS011;70395;51.382;7.074;2024-02-04T09:01:49;8.33;;;7.30;;
80936;SDS011;70395;51.382;7.074;2024-02-04T09:04:15;7.57;;;6.77;;
80936;SDS011;70395;51.382;7.074;2024-02-04T09:06:41;8.70;;;6.40;;
80936;SDS011;70395;51.382;7.074;2024-02-04T09:09:07;10.10;;;7.70;;
80936;SDS011;70395;51.382;7.074;2024-02-04T09:11:34;9.00;;;7.00;;
80936;SDS011;70395;51.382;7.074;2024-02-04T09:14:00;9.47;;;7.90;;
80936;SDS011;70395;51.382;7.074;2024-02-04T09:16:26;11.27;;;8.60;;
80936;SDS011;70395;51.382;7.074;2024-02-04T09:18:53;11.20;;;8.23;;
80936;SDS011;70395;51.382;7.074;2024-02-04T09:21:18;9.13;;;8.10;;
80936;SDS011;70395;51.382;7.074;2024-02-04T09:23:44;9.87;;;7.17;;
80936;SDS011;70395;51.382;7.074;2024-02-04T09:26:10;10.93;;;8.27;;
80936;SDS011;70395;51.382;7.074;2024-02-04T09:28:36;9.50;;;7.40;;
80936;SDS011;70395;51.382;7.074;2024-02-04T09:31:02;9.43;;;8.00;;
80936;SDS011;70395;51.382;7.074;2024-02-04T09:33:29;8.57;;;7.63;;
80936;SDS011;70395;51.382;7.074;2024-02-04T09:35:55;7.20;;;6.50;;
80936;SDS011;70395;51.382;7.074;2024-02-04T09:38:20;8.33;;;7.03;;
80936;SDS011;70395;51.382;7.074;2024-02-04T09:40:46;9.00;;;7.90;;
80936;SDS011;70395;51.382;7.074;2024-02-04T09:43:13;8.20;;;7.40;;
80936;SDS011;70395;51.382;7.074;2024-02-04T09:45:39;9.50;;;7.63;;
80936;SDS011;70395;51.382;7.074;2024-02-04T09:48:06;6.97;;;6.27;;
80936;SDS011;70395;51.382;7.074;2024-02-04T09:50:33;9.00;;;6.90;;
80936;SDS011;70395;51.382;7.074;2024-02-04T09:52:59;9.60;;;6.80;;
80936;SDS011;70395;51.382;7.074;2024-02-04T09:55:28;6.83;;;5.87;;
80936;SDS011;70395;51.382;7.074;2024-02-04T09:57:56;6.70;;;6.00;;
80936;SDS011;70395;51.382;7.074;2024-02-04T10:00:22;9.40;;;6.30;;
80936;SDS011;70395;51.382;7.074;2024-02-04T10:02:54;7.23;;;6.53;;
80936;SDS011;70395;51.382;7.074;2024-02-04T10:05:21;11.97;;;7.10;;
80936;SDS011;70395;51.382;7.074;2024-02-04T10:07:47;8.00;;;7.00;;
80936;SDS011;70395;51.382;7.074;2024-02-04T10:10:13;6.70;;;6.13;;
80936;SDS011;70395;51.382;7.074;2024-02-04T10:12:39;6.70;;;6.00;;
80936;SDS011;70395;51.382;7.074;2024-02-04T10:15:06;7.40;;;6.23;;
80936;SDS011;70395;51.382;7.074;2024-02-04T10:17:33;7.20;;;6.43;;
80936;SDS011;70395;51.382;7.074;2024-02-04T10:20:00;9.53;;;6.10;;
80936;SDS011;70395;51.382;7.074;2024-02-04T10:22:27;6.53;;;5.93;;
80936;SDS011;70395;51.382;7.074;2024-02-04T10:24:54;6.90;;;5.90;;
80936;SDS011;70395;51.382;7.074;2024-02-04T10:27:31;6.03;;;5.10;;
80936;SDS011;70395;51.382;7.074;2024-02-04T10:29:57;6.30;;;5.70;;
80936;SDS011;70395;51.382;7.074;2024-02-04T10:32:23;7.07;;;5.53;;
80936;SDS011;70395;51.382;7.074;2024-02-04T10:34:49;7.87;;;6.27;;
80936;SDS011;70395;51.382;7.074;2024-02-04T10:37:15;7.27;;;6.57;;
80936;SDS011;70395;51.382;7.074;2024-02-04T10:39:41;6.20;;;5.60;;
80936;SDS011;70395;51.382;7.074;2024-02-04T10:42:07;6.13;;;5.53;;
80936;SDS011;70395;51.382;7.074;2024-02-04T10:44:36;5.80;;;5.30;;
80936;SDS011;70395;51.382;7.074;2024-02-04T10:47:05;7.67;;;6.60;;
80936;SDS011;70395;51.382;7.074;2024-02-04T10:49:35;7.80;;;7.00;;
80936;SDS011;70395;51.382;7.074;2024-02-04T10:52:09;8.53;;;6.83;;
80936;SDS011;70395;51.382;7.074;2024-02-04T10:54:37;8.63;;;6.20;;
80936;SDS011;70395;51.382;7.074;2024-02-04T10:57:05;9.33;;;6.27;;
80936;SDS011;70395;51.382;7.074;2024-02-04T10:59:42;8.33;;;7.47;;
80936;SDS011;70395;51.382;7.074;2024-02-04T11:02:09;6.93;;;6.23;;
80936;SDS011;70395;51.382;7.074;2024-02-04T11:04:37;7.20;;;6.50;;
80936;SDS011;70395;51.382;7.074;2024-02-04T11:07:04;7.40;;;6.20;;
80936;SDS011;70395;51.382;7.074;2024-02-04T11:09:31;7.83;;;6.33;;
80936;SDS011;70395;51.382;7.074;2024-02-04T11:11:58;7.77;;;6.17;;
80936;SDS011;70395;51.382;7.074;2024-02-04T11:14:26;6.13;;;5.13;;
80936;SDS011;70395;51.382;7.074;2024-02-04T11:17:05;5.40;;;4.90;;
80936;SDS011;70395;51.382;7.074;2024-02-04T11:26:12;4.83;;;4.33;;
80936;SDS011;70395;51.382;7.074;2024-02-04T11:28:41;6.63;;;4.60;;
80936;SDS011;70395;51.382;7.074;2024-02-04T11:31:14;5.77;;;4.90;;
80936;SDS011;70395;51.382;7.074;2024-02-04T11:33:43;7.03;;;6.27;;
80936;SDS011;70395;51.382;7.074;2024-02-04T11:36:13;5.23;;;4.73;;
80936;SDS011;70395;51.382;7.074;2024-02-04T11:38:43;4.43;;;3.73;;
80936;SDS011;70395;51.382;7.074;2024-02-04T11:41:20;4.17;;;3.77;;
80936;SDS011;70395;51.382;7.074;2024-02-04T11:43:52;3.90;;;3.10;;
80936;SDS011;70395;51.382;7.074;2024-02-04T11:46:21;3.63;;;2.80;;
80936;SDS011;70395;51.382;7.074;2024-02-04T11:48:53;7.83;;;5.43;;
80936;SDS011;70395;51.382;7.074;2024-02-04T11:51:22;5.43;;;3.73;;
80936;SDS011;70395;51.382;7.074;2024-02-04T11:53:50;4.30;;;3.90;;
80936;SDS011;70395;51.382;7.074;2024-02-04T11:56:17;6.37;;;4.07;;
80936;SDS011;70395;51.382;7.074;2024-02-04T11:58:44;5.80;;;4.17;;
80936;SDS011;70395;51.382;7.074;2024-02-04T12:01:12;5.10;;;4.23;;
80936;SDS011;70395;51.382;7.074;2024-02-04T12:03:37;6.03;;;5.43;;
80936;SDS011;70395;51.382;7.074;2024-02-04T12:06:03;7.20;;;5.10;;
80936;SDS011;70395;51.382;7.074;2024-02-04T12:08:32;5.23;;;4.73;;
80936;SDS011;70395;51.382;7.074;2024-02-04T12:10:59;4.83;;;4.20;;
80936;SDS011;70395;51.382;7.074;2024-02-04T12:13:29;7.43;;;5.43;;
80936;SDS011;70395;51.382;7.074;2024-02-04T12:15:59;6.20;;;5.60;;
80936;SDS011;70395;51.382;7.074;2024-02-04T12:18:25;6.50;;;4.87;;
80936;SDS011;70395;51.382;7.074;2024-02-04T12:20:51;6.50;;;4.97;;
80936;SDS011;70395;51.382;7.074;2024-02-04T12:23:18;8.80;;;5.40;;
80936;SDS011;70395;51.382;7.074;2024-02-04T12:25:44;5.50;;;4.80;;
80936;SDS011;70395;51.382;7.074;2024-02-04T12:28:10;5.90;;;5.30;;
80936;SDS011;70395;51.382;7.074;2024-02-04T12:30:36;5.90;;;5.00;;
80936;SDS011;70395;51.382;7.074;2024-02-04T12:33:03;6.40;;;4.90;;
80936;SDS011;70395;51.382;7.074;2024-02-04T12:35:30;7.03;;;5.10;;
80936;SDS011;70395;51.382;7.074;2024-02-04T12:37:57;7.73;;;5.40;;
80936;SDS011;70395;51.382;7.074;2024-02-04T12:40:25;5.90;;;5.10;;
80936;SDS011;70395;51.382;7.074;2024-02-04T12:42:56;6.90;;;4.77;;
80936;SDS011;70395;51.382;7.074;2024-02-04T12:45:25;6.27;;;4.60;;
80936;SDS011;70395;51.382;7.074;2024-02-04T12:47:52;9.27;;;5.50;;
80936;SDS011;70395;51.382;7.074;2024-02-04T12:50:20;4.83;;;4.33;;
80936;SDS011;70395;51.382;7.074;2024-02-04T12:52:50;6.47;;;4.50;;
80936;SDS011;70395;51.382;7.074;2024-02-04T12:55:34;7.50;;;5.37;;
80936;SDS011;70395;51.382;7.074;2024-02-04T12:58:02;6.10;;;4.47;;
80936;SDS011;70395;51.382;7.074;2024-02-04T13:00:32;6.40;;;4.37;;
80936;SDS011;70395;51.382;7.074;2024-02-04T13:03:01;7.83;;;4.70;;
80936;SDS011;70395;51.382;7.074;2024-02-04T13:05:33;6.60;;;4.23;;
80936;SDS011;70395;51.382;7.074;2024-02-04T13:08:00;5.00;;;4.43;;
80936;SDS011;70395;51.382;7.074;2024-02-04T13:10:33;5.30;;;4.70;;
80936;SDS011;70395;51.382;7.074;2024-02-04T13:13:02;4.43;;;4.03;;
80936;SDS011;70395;51.382;7.074;2024-02-04T13:15:38;6.30;;;4.07;;
80936;SDS011;70395;51.382;7.074;2024-02-04T13:18:08;5.60;;;4.30;;
80936;SDS011;70395;51.382;7.074;2024-02-04T13:20:40;5.10;;;4.07;;
80936;SDS011;70395;51.382;7.074;2024-02-04T13:23:07;5.00;;;3.90;;
80936;SDS011;70395;51.382;7.074;2024-02-04T13:25:33;4.77;;;4.30;;
80936;SDS011;70395;51.382;7.074;2024-02-04T13:28:00;4.50;;;4.10;;
80936;SDS011;70395;51.382;7.074;2024-02-04T13:30:26;4.53;;;3.67;;
80936;SDS011;70395;51.382;7.074;2024-02-04T13:32:52;4.50;;;3.13;;
80936;SDS011;70395;51.382;7.074;2024-02-04T13:35:18;4.37;;;3.50;;
80936;SDS011;70395;51.382;7.074;2024-02-04T13:37:45;5.13;;;3.57;;
80936;SDS011;70395;51.382;7.074;2024-02-04T13:40:13;4.40;;;3.40;;
80936;SDS011;70395;51.382;7.074;2024-02-04T13:42:40;4.90;;;3.83;;
80936;SDS011;70395;51.382;7.074;2024-02-04T13:45:07;3.50;;;3.20;;
80936;SDS011;70395;51.382;7.074;2024-02-04T13:47:33;4.20;;;3.80;;
80936;SDS011;70395;51.382;7.074;2024-02-04T13:50:00;5.70;;;3.70;;
80936;SDS011;70395;51.382;7.074;2024-02-04T13:52:27;5.80;;;3.77;;
80936;SDS011;70395;51.382;7.074;2024-02-04T13:54:53;4.73;;;3.70;;
80936;SDS011;70395;51.382;7.074;2024-02-04T13:57:19;4.53;;;4.13;;
80936;SDS011;70395;51.382;7.074;2024-02-04T13:59:45;4.93;;;4.50;;
80936;SDS011;70395;51.382;7.074;2024-02-04T14:02:11;5.00;;;4.40;;
80936;SDS011;70395;51.382;7.074;2024-02-04T14:04:37;4.80;;;4.40;;
80936;SDS011;70395;51.382;7.074;2024-02-04T14:07:03;7.70;;;6.27;;
80936;SDS011;70395;51.382;7.074;2024-02-04T14:09:29;7.90;;;7.20;;
80936;SDS011;70395;51.382;7.074;2024-02-04T14:11:55;8.50;;;7.70;;
80936;SDS011;70395;51.382;7.074;2024-02-04T14:14:22;8.60;;;7.77;;
80936;SDS011;70395;51.382;7.074;2024-02-04T14:16:49;8.50;;;7.70;;
80936;SDS011;70395;51.382;7.074;2024-02-04T14:19:15;6.70;;;6.10;;
80936;SDS011;70395;51.382;7.074;2024-02-04T14:21:41;5.57;;;4.80;;
80936;SDS011;70395;51.382;7.074;2024-02-04T14:24:08;8.67;;;5.10;;
80936;SDS011;70395;51.382;7.074;2024-02-04T14:26:34;4.70;;;4.17;;
80936;SDS011;70395;51.382;7.074;2024-02-04T14:29:00;4.40;;;4.00;;
80936;SDS011;70395;51.382;7.074;2024-02-04T14:31:26;5.60;;;5.07;;
80936;SDS011;70395;51.382;7.074;2024-02-04T14:33:52;4.63;;;4.10;;
80936;SDS011;70395;51.382;7.074;2024-02-04T14:36:18;5.47;;;5.00;;
80936;SDS011;70395;51.382;7.074;2024-02-04T14:38:44;5.13;;;4.40;;
80936;SDS011;70395;51.382;7.074;2024-02-04T14:41:10;11.13;;;6.60;;
80936;SDS011;70395;51.382;7.074;2024-02-04T14:43:37;7.13;;;5.50;;
80936;SDS011;70395;51.382;7.074;2024-02-04T14:46:03;8.20;;;5.73;;
80936;SDS011;70395;51.382;7.074;2024-02-04T14:48:30;8.53;;;6.17;;